sensor_id;sensor_type;location;lat;lon;timestamp;P1;durP1;ratioP1;P2;durP2;ratioP2
52878;SDS011;38747;53.140;6.498;2022-08-11T00:02:35;8.00;;;5.20;;
52878;SDS011;38747;53.140;6.498;2022-08-11T00:05:06;8.85;;;5.65;;
52878;SDS011;38747;53.140;6.498;2022-08-11T00:07:44;6.40;;;4.60;;
52878;SDS011;38747;53.140;6.498;2022-08-11T00:10:16;7.45;;;4.95;;
52878;SDS011;38747;53.140;6.498;2022-08-11T00:12:55;7.28;;;4.50;;
52878;SDS011;38747;53.140;6.498;2022-08-11T00:15:23;6.63;;;5.32;;
52878;SDS011;38747;53.140;6.498;2022-08-11T00:17:57;11.60;;;5.43;;
52878;SDS011;38747;53.140;6.498;2022-08-11T00:20:29;7.30;;;5.00;;
52878;SDS011;38747;53.140;6.498;2022-08-11T00:25:52;8.77;;;5.50;;
52878;SDS011;38747;53.140;6.498;2022-08-11T00:28:28;8.32;;;5.65;;
52878;SDS011;38747;53.140;6.498;2022-08-11T00:31:00;8.25;;;5.60;;
52878;SDS011;38747;53.140;6.498;2022-08-11T00:33:38;7.72;;;5.13;;
52878;SDS011;38747;53.140;6.498;2022-08-11T00:36:07;9.98;;;4.63;;
52878;SDS011;38747;53.140;6.498;2022-08-11T00:38:36;7.88;;;4.95;;
52878;SDS011;38747;53.140;6.498;2022-08-11T00:41:14;7.97;;;5.47;;
52878;SDS011;38747;53.140;6.498;2022-08-11T00:44:10;8.07;;;5.05;;
52878;SDS011;38747;53.140;6.498;2022-08-11T00:46:55;8.57;;;5.38;;
52878;SDS011;38747;53.140;6.498;2022-08-11T00:49:38;8.55;;;5.22;;
52878;SDS011;38747;53.140;6.498;2022-08-11T01:00:19;9.90;;;5.60;;
52878;SDS011;38747;53.140;6.498;2022-08-11T01:05:51;8.23;;;5.80;;
52878;SDS011;38747;53.140;6.498;2022-08-11T01:08:29;8.70;;;4.47;;
52878;SDS011;38747;53.140;6.498;2022-08-11T01:31:55;6.40;;;4.40;;
52878;SDS011;38747;53.140;6.498;2022-08-11T01:40:20;7.40;;;5.53;;
52878;SDS011;38747;53.140;6.498;2022-08-11T01:54:41;7.05;;;5.00;;
52878;SDS011;38747;53.140;6.498;2022-08-11T01:57:22;6.00;;;4.53;;
52878;SDS011;38747;53.140;6.498;2022-08-11T02:00:11;7.07;;;5.00;;
52878;SDS011;38747;53.140;6.498;2022-08-11T02:11:27;7.30;;;4.80;;
52878;SDS011;38747;53.140;6.498;2022-08-11T02:19:53;6.13;;;4.68;;
52878;SDS011;38747;53.140;6.498;2022-08-11T02:22:45;5.68;;;4.28;;
52878;SDS011;38747;53.140;6.498;2022-08-11T02:25:52;6.95;;;5.07;;
52878;SDS011;38747;53.140;6.498;2022-08-11T02:33:50;6.07;;;4.72;;
52878;SDS011;38747;53.140;6.498;2022-08-11T02:36:26;9.23;;;5.32;;
52878;SDS011;38747;53.140;6.498;2022-08-11T02:39:05;7.38;;;5.28;;
52878;SDS011;38747;53.140;6.498;2022-08-11T02:44:43;6.07;;;5.03;;
52878;SDS011;38747;53.140;6.498;2022-08-11T02:47:31;8.88;;;5.78;;
52878;SDS011;38747;53.140;6.498;2022-08-11T02:50:42;8.50;;;5.55;;
52878;SDS011;38747;53.140;6.498;2022-08-11T02:53:27;7.32;;;5.75;;
52878;SDS011;38747;53.140;6.498;2022-08-11T02:56:10;11.68;;;5.80;;
52878;SDS011;38747;53.140;6.498;2022-08-11T02:58:55;6.47;;;5.00;;
52878;SDS011;38747;53.140;6.498;2022-08-11T03:01:57;8.07;;;5.65;;
52878;SDS011;38747;53.140;6.498;2022-08-11T03:04:30;9.70;;;5.57;;
52878;SDS011;38747;53.140;6.498;2022-08-11T03:07:24;9.88;;;5.70;;
52878;SDS011;38747;53.140;6.498;2022-08-11T03:10:09;9.13;;;5.65;;
52878;SDS011;38747;53.140;6.498;2022-08-11T03:15:31;8.15;;;5.15;;
52878;SDS011;38747;53.140;6.498;2022-08-11T03:24:59;9.88;;;5.38;;
52878;SDS011;38747;53.140;6.498;2022-08-11T03:35:48;7.72;;;5.72;;
52878;SDS011;38747;53.140;6.498;2022-08-11T03:41:31;9.27;;;6.40;;
52878;SDS011;38747;53.140;6.498;2022-08-11T03:52:37;12.25;;;7.32;;
52878;SDS011;38747;53.140;6.498;2022-08-11T04:12:27;11.10;;;6.50;;
52878;SDS011;38747;53.140;6.498;2022-08-11T04:18:45;8.95;;;6.10;;
52878;SDS011;38747;53.140;6.498;2022-08-11T04:21:46;9.30;;;5.45;;
52878;SDS011;38747;53.140;6.498;2022-08-11T04:49:31;11.23;;;7.80;;
52878;SDS011;38747;53.140;6.498;2022-08-11T04:52:36;10.65;;;7.82;;
52878;SDS011;38747;53.140;6.498;2022-08-11T04:58:20;13.73;;;8.98;;
52878;SDS011;38747;53.140;6.498;2022-08-11T05:04:19;10.07;;;7.65;;
52878;SDS011;38747;53.140;6.498;2022-08-11T05:16:32;17.58;;;11.75;;
52878;SDS011;38747;53.140;6.498;2022-08-11T05:19:25;21.52;;;11.68;;
52878;SDS011;38747;53.140;6.498;2022-08-11T05:22:10;21.95;;;13.48;;
52878;SDS011;38747;53.140;6.498;2022-08-11T05:25:05;16.35;;;11.18;;
52878;SDS011;38747;53.140;6.498;2022-08-11T05:28:05;20.23;;;12.60;;
52878;SDS011;38747;53.140;6.498;2022-08-11T05:30:57;18.17;;;11.48;;
52878;SDS011;38747;53.140;6.498;2022-08-11T05:33:55;19.10;;;12.88;;
52878;SDS011;38747;53.140;6.498;2022-08-11T05:39:54;19.15;;;12.05;;
52878;SDS011;38747;53.140;6.498;2022-08-11T05:42:50;19.52;;;12.85;;
52878;SDS011;38747;53.140;6.498;2022-08-11T05:45:40;15.90;;;11.60;;
52878;SDS011;38747;53.140;6.498;2022-08-11T05:48:31;21.67;;;13.05;;
52878;SDS011;38747;53.140;6.498;2022-08-11T05:51:18;19.02;;;11.52;;
52878;SDS011;38747;53.140;6.498;2022-08-11T05:54:03;17.67;;;12.00;;
52878;SDS011;38747;53.140;6.498;2022-08-11T05:56:53;17.25;;;12.00;;
52878;SDS011;38747;53.140;6.498;2022-08-11T05:59:20;17.02;;;11.90;;
52878;SDS011;38747;53.140;6.498;2022-08-11T06:01:47;16.75;;;11.85;;
52878;SDS011;38747;53.140;6.498;2022-08-11T06:04:15;17.50;;;10.50;;
52878;SDS011;38747;53.140;6.498;2022-08-11T06:06:55;16.35;;;10.80;;
52878;SDS011;38747;53.140;6.498;2022-08-11T06:09:49;17.95;;;11.90;;
52878;SDS011;38747;53.140;6.498;2022-08-11T06:12:22;16.48;;;11.65;;
52878;SDS011;38747;53.140;6.498;2022-08-11T06:14:56;18.38;;;11.75;;
52878;SDS011;38747;53.140;6.498;2022-08-11T06:17:31;18.70;;;11.57;;
52878;SDS011;38747;53.140;6.498;2022-08-11T06:20:04;17.73;;;12.00;;
52878;SDS011;38747;53.140;6.498;2022-08-11T06:22:35;20.10;;;12.02;;
52878;SDS011;38747;53.140;6.498;2022-08-11T06:25:02;17.90;;;11.00;;
52878;SDS011;38747;53.140;6.498;2022-08-11T06:27:31;17.10;;;10.90;;
52878;SDS011;38747;53.140;6.498;2022-08-11T06:29:59;16.20;;;10.70;;
52878;SDS011;38747;53.140;6.498;2022-08-11T06:32:28;20.15;;;11.43;;
52878;SDS011;38747;53.140;6.498;2022-08-11T06:35:10;14.73;;;10.52;;
52878;SDS011;38747;53.140;6.498;2022-08-11T06:38:02;14.43;;;10.27;;
52878;SDS011;38747;53.140;6.498;2022-08-11T06:45:47;12.98;;;9.55;;
52878;SDS011;38747;53.140;6.498;2022-08-11T06:48:33;12.50;;;9.00;;
52878;SDS011;38747;53.140;6.498;2022-08-11T06:51:03;12.23;;;9.27;;
52878;SDS011;38747;53.140;6.498;2022-08-11T06:53:52;13.85;;;9.15;;
52878;SDS011;38747;53.140;6.498;2022-08-11T06:56:30;13.02;;;8.98;;
52878;SDS011;38747;53.140;6.498;2022-08-11T06:59:18;14.02;;;8.95;;
52878;SDS011;38747;53.140;6.498;2022-08-11T07:02:06;11.35;;;8.10;;
52878;SDS011;38747;53.140;6.498;2022-08-11T07:04:41;13.65;;;7.95;;
52878;SDS011;38747;53.140;6.498;2022-08-11T07:13:18;10.93;;;6.72;;
52878;SDS011;38747;53.140;6.498;2022-08-11T07:18:32;13.90;;;6.55;;
52878;SDS011;38747;53.140;6.498;2022-08-11T07:21:20;13.85;;;6.55;;
52878;SDS011;38747;53.140;6.498;2022-08-11T07:24:54;10.13;;;6.57;;
52878;SDS011;38747;53.140;6.498;2022-08-11T07:27:44;12.90;;;6.22;;
52878;SDS011;38747;53.140;6.498;2022-08-11T07:30:31;7.93;;;5.68;;
52878;SDS011;38747;53.140;6.498;2022-08-11T07:33:01;9.07;;;5.30;;
52878;SDS011;38747;53.140;6.498;2022-08-11T07:38:34;8.50;;;5.53;;
52878;SDS011;38747;53.140;6.498;2022-08-11T07:41:12;8.68;;;4.80;;
52878;SDS011;38747;53.140;6.498;2022-08-11T07:43:40;8.85;;;5.00;;
52878;SDS011;38747;53.140;6.498;2022-08-11T07:46:08;10.25;;;4.63;;
52878;SDS011;38747;53.140;6.498;2022-08-11T07:48:53;6.45;;;4.72;;
52878;SDS011;38747;53.140;6.498;2022-08-11T07:51:38;6.28;;;4.05;;
52878;SDS011;38747;53.140;6.498;2022-08-11T07:54:25;5.18;;;3.63;;
52878;SDS011;38747;53.140;6.498;2022-08-11T07:56:51;8.68;;;4.35;;
52878;SDS011;38747;53.140;6.498;2022-08-11T07:59:17;5.57;;;3.90;;
52878;SDS011;38747;53.140;6.498;2022-08-11T08:02:03;6.20;;;3.92;;
52878;SDS011;38747;53.140;6.498;2022-08-11T08:04:48;3.65;;;2.75;;
52878;SDS011;38747;53.140;6.498;2022-08-11T08:07:32;6.00;;;3.13;;
52878;SDS011;38747;53.140;6.498;2022-08-11T08:10:17;10.80;;;2.80;;
52878;SDS011;38747;53.140;6.498;2022-08-11T08:13:03;4.00;;;3.13;;
52878;SDS011;38747;53.140;6.498;2022-08-11T08:15:50;9.27;;;3.20;;
52878;SDS011;38747;53.140;6.498;2022-08-11T08:18:37;5.63;;;3.80;;
52878;SDS011;38747;53.140;6.498;2022-08-11T08:21:04;5.45;;;3.00;;
52878;SDS011;38747;53.140;6.498;2022-08-11T08:23:40;6.28;;;2.90;;
52878;SDS011;38747;53.140;6.498;2022-08-11T08:26:09;7.55;;;3.75;;
52878;SDS011;38747;53.140;6.498;2022-08-11T08:28:57;11.18;;;2.63;;
52878;SDS011;38747;53.140;6.498;2022-08-11T08:31:45;8.07;;;3.13;;
52878;SDS011;38747;53.140;6.498;2022-08-11T08:34:15;8.40;;;3.72;;
52878;SDS011;38747;53.140;6.498;2022-08-11T08:36:42;3.53;;;2.75;;
52878;SDS011;38747;53.140;6.498;2022-08-11T08:39:10;7.32;;;3.03;;
52878;SDS011;38747;53.140;6.498;2022-08-11T08:41:37;8.77;;;2.70;;
52878;SDS011;38747;53.140;6.498;2022-08-11T08:44:07;7.38;;;2.85;;
52878;SDS011;38747;53.140;6.498;2022-08-11T08:46:40;7.65;;;2.90;;
52878;SDS011;38747;53.140;6.498;2022-08-11T08:49:08;7.07;;;2.60;;
52878;SDS011;38747;53.140;6.498;2022-08-11T08:51:38;5.45;;;2.50;;
52878;SDS011;38747;53.140;6.498;2022-08-11T08:54:07;4.90;;;2.35;;
52878;SDS011;38747;53.140;6.498;2022-08-11T08:56:36;4.32;;;2.13;;
52878;SDS011;38747;53.140;6.498;2022-08-11T08:59:04;4.43;;;2.25;;
52878;SDS011;38747;53.140;6.498;2022-08-11T09:01:35;4.07;;;1.70;;
52878;SDS011;38747;53.140;6.498;2022-08-11T09:04:07;7.72;;;1.80;;
52878;SDS011;38747;53.140;6.498;2022-08-11T09:06:34;5.70;;;2.10;;
52878;SDS011;38747;53.140;6.498;2022-08-11T09:09:03;3.22;;;2.10;;
52878;SDS011;38747;53.140;6.498;2022-08-11T09:11:32;4.18;;;2.05;;
52878;SDS011;38747;53.140;6.498;2022-08-11T09:14:14;2.65;;;1.65;;
52878;SDS011;38747;53.140;6.498;2022-08-11T09:17:11;6.13;;;2.00;;
52878;SDS011;38747;53.140;6.498;2022-08-11T09:19:37;3.08;;;1.77;;
52878;SDS011;38747;53.140;6.498;2022-08-11T09:22:03;5.05;;;2.00;;
52878;SDS011;38747;53.140;6.498;2022-08-11T09:24:48;2.80;;;1.98;;
52878;SDS011;38747;53.140;6.498;2022-08-11T09:27:34;3.78;;;1.80;;
52878;SDS011;38747;53.140;6.498;2022-08-11T09:30:00;4.38;;;1.80;;
52878;SDS011;38747;53.140;6.498;2022-08-11T09:32:26;6.00;;;1.95;;
52878;SDS011;38747;53.140;6.498;2022-08-11T09:34:53;7.28;;;1.90;;
52878;SDS011;38747;53.140;6.498;2022-08-11T09:37:20;6.53;;;1.52;;
52878;SDS011;38747;53.140;6.498;2022-08-11T09:40:05;4.75;;;1.95;;
52878;SDS011;38747;53.140;6.498;2022-08-11T09:42:51;5.03;;;1.80;;
52878;SDS011;38747;53.140;6.498;2022-08-11T09:45:36;5.13;;;1.85;;
52878;SDS011;38747;53.140;6.498;2022-08-11T09:48:02;6.68;;;1.98;;
52878;SDS011;38747;53.140;6.498;2022-08-11T09:50:30;4.53;;;2.33;;
52878;SDS011;38747;53.140;6.498;2022-08-11T09:52:57;4.68;;;1.90;;
52878;SDS011;38747;53.140;6.498;2022-08-11T09:55:23;3.15;;;1.90;;
52878;SDS011;38747;53.140;6.498;2022-08-11T09:57:50;3.53;;;1.90;;
52878;SDS011;38747;53.140;6.498;2022-08-11T10:00:34;3.88;;;1.67;;
52878;SDS011;38747;53.140;6.498;2022-08-11T10:03:02;5.20;;;1.90;;
52878;SDS011;38747;53.140;6.498;2022-08-11T10:05:32;3.25;;;1.65;;
52878;SDS011;38747;53.140;6.498;2022-08-11T10:08:17;3.58;;;1.80;;
52878;SDS011;38747;53.140;6.498;2022-08-11T10:10:44;5.68;;;2.47;;
52878;SDS011;38747;53.140;6.498;2022-08-11T10:13:18;5.18;;;1.40;;
52878;SDS011;38747;53.140;6.498;2022-08-11T10:15:46;3.25;;;1.67;;
52878;SDS011;38747;53.140;6.498;2022-08-11T10:18:14;4.15;;;1.88;;
52878;SDS011;38747;53.140;6.498;2022-08-11T10:21:11;3.13;;;1.52;;
52878;SDS011;38747;53.140;6.498;2022-08-11T10:24:00;2.72;;;1.63;;
52878;SDS011;38747;53.140;6.498;2022-08-11T10:26:46;4.40;;;2.35;;
52878;SDS011;38747;53.140;6.498;2022-08-11T10:29:23;2.83;;;1.35;;
52878;SDS011;38747;53.140;6.498;2022-08-11T10:32:09;5.20;;;1.80;;
52878;SDS011;38747;53.140;6.498;2022-08-11T10:34:54;3.20;;;1.60;;
52878;SDS011;38747;53.140;6.498;2022-08-11T10:37:21;5.55;;;1.77;;
52878;SDS011;38747;53.140;6.498;2022-08-11T10:39:49;3.30;;;1.70;;
52878;SDS011;38747;53.140;6.498;2022-08-11T10:42:16;3.30;;;1.70;;
52878;SDS011;38747;53.140;6.498;2022-08-11T10:45:02;5.28;;;1.73;;
52878;SDS011;38747;53.140;6.498;2022-08-11T10:47:51;4.60;;;2.00;;
52878;SDS011;38747;53.140;6.498;2022-08-11T10:50:19;5.97;;;1.90;;
52878;SDS011;38747;53.140;6.498;2022-08-11T10:53:04;3.15;;;1.77;;
52878;SDS011;38747;53.140;6.498;2022-08-11T10:55:50;2.42;;;1.48;;
52878;SDS011;38747;53.140;6.498;2022-08-11T10:58:35;3.88;;;1.65;;
52878;SDS011;38747;53.140;6.498;2022-08-11T11:01:20;2.67;;;1.63;;
52878;SDS011;38747;53.140;6.498;2022-08-11T11:03:55;4.75;;;1.77;;
52878;SDS011;38747;53.140;6.498;2022-08-11T11:09:15;3.13;;;1.50;;
52878;SDS011;38747;53.140;6.498;2022-08-11T11:11:49;4.00;;;1.80;;
52878;SDS011;38747;53.140;6.498;2022-08-11T11:14:39;2.45;;;1.50;;
52878;SDS011;38747;53.140;6.498;2022-08-11T11:17:34;4.25;;;1.63;;
52878;SDS011;38747;53.140;6.498;2022-08-11T11:20:29;3.92;;;1.25;;
52878;SDS011;38747;53.140;6.498;2022-08-11T11:23:04;3.70;;;1.83;;
52878;SDS011;38747;53.140;6.498;2022-08-11T11:25:50;2.65;;;1.45;;
52878;SDS011;38747;53.140;6.498;2022-08-11T11:31:10;4.90;;;1.63;;
52878;SDS011;38747;53.140;6.498;2022-08-11T11:36:48;3.47;;;1.63;;
52878;SDS011;38747;53.140;6.498;2022-08-11T11:39:28;3.33;;;1.58;;
52878;SDS011;38747;53.140;6.498;2022-08-11T11:41:56;6.13;;;1.80;;
52878;SDS011;38747;53.140;6.498;2022-08-11T11:44:24;3.15;;;1.40;;
52878;SDS011;38747;53.140;6.498;2022-08-11T11:46:52;3.10;;;1.50;;
52878;SDS011;38747;53.140;6.498;2022-08-11T11:49:27;2.40;;;1.63;;
52878;SDS011;38747;53.140;6.498;2022-08-11T11:51:56;3.72;;;1.35;;
52878;SDS011;38747;53.140;6.498;2022-08-11T11:54:24;3.85;;;1.35;;
52878;SDS011;38747;53.140;6.498;2022-08-11T11:56:52;4.55;;;1.40;;
52878;SDS011;38747;53.140;6.498;2022-08-11T11:59:20;2.85;;;1.60;;
52878;SDS011;38747;53.140;6.498;2022-08-11T12:02:08;1.85;;;1.40;;
52878;SDS011;38747;53.140;6.498;2022-08-11T12:04:37;1.60;;;1.40;;
52878;SDS011;38747;53.140;6.498;2022-08-11T12:07:05;4.68;;;1.60;;
52878;SDS011;38747;53.140;6.498;2022-08-11T12:09:51;3.22;;;1.60;;
52878;SDS011;38747;53.140;6.498;2022-08-11T12:12:17;2.95;;;1.40;;
52878;SDS011;38747;53.140;6.498;2022-08-11T12:15:03;7.63;;;1.77;;
52878;SDS011;38747;53.140;6.498;2022-08-11T12:17:29;1.85;;;1.30;;
52878;SDS011;38747;53.140;6.498;2022-08-11T12:19:55;3.78;;;1.70;;
52878;SDS011;38747;53.140;6.498;2022-08-11T12:22:21;4.57;;;1.70;;
52878;SDS011;38747;53.140;6.498;2022-08-11T12:25:05;16.27;;;1.80;;
52878;SDS011;38747;53.140;6.498;2022-08-11T12:27:52;2.00;;;1.25;;
52878;SDS011;38747;53.140;6.498;2022-08-11T12:30:19;3.00;;;1.63;;
52878;SDS011;38747;53.140;6.498;2022-08-11T12:32:44;3.35;;;1.10;;
52878;SDS011;38747;53.140;6.498;2022-08-11T12:35:13;1.65;;;1.35;;
52878;SDS011;38747;53.140;6.498;2022-08-11T12:37:41;2.53;;;1.30;;
52878;SDS011;38747;53.140;6.498;2022-08-11T12:40:13;3.28;;;1.55;;
52878;SDS011;38747;53.140;6.498;2022-08-11T12:43:02;3.08;;;1.40;;
52878;SDS011;38747;53.140;6.498;2022-08-11T12:45:50;2.58;;;1.40;;
52878;SDS011;38747;53.140;6.498;2022-08-11T12:48:22;3.28;;;1.30;;
52878;SDS011;38747;53.140;6.498;2022-08-11T12:51:22;2.97;;;1.58;;
52878;SDS011;38747;53.140;6.498;2022-08-11T12:54:09;2.97;;;1.67;;
52878;SDS011;38747;53.140;6.498;2022-08-11T12:56:45;3.70;;;1.48;;
52878;SDS011;38747;53.140;6.498;2022-08-11T12:59:40;3.80;;;1.50;;
52878;SDS011;38747;53.140;6.498;2022-08-11T13:02:24;3.88;;;1.75;;
52878;SDS011;38747;53.140;6.498;2022-08-11T13:05:13;2.72;;;1.40;;
52878;SDS011;38747;53.140;6.498;2022-08-11T13:07:41;5.10;;;1.60;;
52878;SDS011;38747;53.140;6.498;2022-08-11T13:10:08;2.75;;;1.52;;
52878;SDS011;38747;53.140;6.498;2022-08-11T13:12:37;2.33;;;1.40;;
52878;SDS011;38747;53.140;6.498;2022-08-11T13:17:42;4.03;;;1.63;;
52878;SDS011;38747;53.140;6.498;2022-08-11T13:20:09;3.38;;;1.55;;
52878;SDS011;38747;53.140;6.498;2022-08-11T13:22:38;4.03;;;1.60;;
52878;SDS011;38747;53.140;6.498;2022-08-11T13:25:09;3.03;;;1.30;;
52878;SDS011;38747;53.140;6.498;2022-08-11T13:27:35;4.32;;;1.40;;
52878;SDS011;38747;53.140;6.498;2022-08-11T13:30:02;1.52;;;1.38;;
52878;SDS011;38747;53.140;6.498;2022-08-11T13:32:47;4.63;;;1.77;;
52878;SDS011;38747;53.140;6.498;2022-08-11T13:35:13;5.88;;;1.40;;
52878;SDS011;38747;53.140;6.498;2022-08-11T13:37:40;6.65;;;1.70;;
52878;SDS011;38747;53.140;6.498;2022-08-11T13:40:09;5.05;;;1.48;;
52878;SDS011;38747;53.140;6.498;2022-08-11T13:42:37;2.90;;;1.50;;
52878;SDS011;38747;53.140;6.498;2022-08-11T13:45:04;4.32;;;1.25;;
52878;SDS011;38747;53.140;6.498;2022-08-11T13:47:31;7.22;;;1.60;;
52878;SDS011;38747;53.140;6.498;2022-08-11T13:49:58;3.47;;;1.50;;
52878;SDS011;38747;53.140;6.498;2022-08-11T13:52:24;2.83;;;1.45;;
52878;SDS011;38747;53.140;6.498;2022-08-11T13:54:52;2.30;;;1.35;;
52878;SDS011;38747;53.140;6.498;2022-08-11T13:57:18;3.70;;;1.60;;
52878;SDS011;38747;53.140;6.498;2022-08-11T13:59:45;4.22;;;1.30;;
52878;SDS011;38747;53.140;6.498;2022-08-11T14:02:16;4.18;;;1.50;;
52878;SDS011;38747;53.140;6.498;2022-08-11T14:04:44;3.63;;;1.35;;
52878;SDS011;38747;53.140;6.498;2022-08-11T14:07:13;1.30;;;1.20;;
52878;SDS011;38747;53.140;6.498;2022-08-11T14:09:44;3.05;;;1.50;;
52878;SDS011;38747;53.140;6.498;2022-08-11T14:12:12;2.85;;;1.20;;
52878;SDS011;38747;53.140;6.498;2022-08-11T14:15:04;4.25;;;1.42;;
52878;SDS011;38747;53.140;6.498;2022-08-11T14:17:37;4.80;;;1.63;;
52878;SDS011;38747;53.140;6.498;2022-08-11T14:20:06;1.50;;;1.38;;
52878;SDS011;38747;53.140;6.498;2022-08-11T14:22:34;1.92;;;1.40;;
52878;SDS011;38747;53.140;6.498;2022-08-11T14:25:05;2.33;;;1.20;;
52878;SDS011;38747;53.140;6.498;2022-08-11T14:27:31;3.67;;;1.25;;
52878;SDS011;38747;53.140;6.498;2022-08-11T14:29:57;2.28;;;1.25;;
52878;SDS011;38747;53.140;6.498;2022-08-11T14:32:23;2.45;;;1.30;;
52878;SDS011;38747;53.140;6.498;2022-08-11T14:34:50;4.97;;;1.45;;
52878;SDS011;38747;53.140;6.498;2022-08-11T14:37:21;1.98;;;1.45;;
52878;SDS011;38747;53.140;6.498;2022-08-11T14:39:51;2.40;;;1.30;;
52878;SDS011;38747;53.140;6.498;2022-08-11T14:42:20;2.05;;;1.40;;
52878;SDS011;38747;53.140;6.498;2022-08-11T14:45:07;5.10;;;1.50;;
52878;SDS011;38747;53.140;6.498;2022-08-11T14:47:54;3.20;;;1.30;;
52878;SDS011;38747;53.140;6.498;2022-08-11T14:50:25;4.13;;;1.42;;
52878;SDS011;38747;53.140;6.498;2022-08-11T14:53:00;4.75;;;1.40;;
52878;SDS011;38747;53.140;6.498;2022-08-11T14:58:16;2.30;;;1.50;;
52878;SDS011;38747;53.140;6.498;2022-08-11T15:00:43;5.68;;;1.67;;
52878;SDS011;38747;53.140;6.498;2022-08-11T15:03:11;3.80;;;1.60;;
52878;SDS011;38747;53.140;6.498;2022-08-11T15:05:40;3.00;;;1.33;;
52878;SDS011;38747;53.140;6.498;2022-08-11T15:08:09;2.90;;;1.27;;
52878;SDS011;38747;53.140;6.498;2022-08-11T15:10:38;2.58;;;1.60;;
52878;SDS011;38747;53.140;6.498;2022-08-11T15:13:04;3.53;;;1.50;;
52878;SDS011;38747;53.140;6.498;2022-08-11T15:15:30;2.63;;;1.50;;
52878;SDS011;38747;53.140;6.498;2022-08-11T15:18:16;6.22;;;1.70;;
52878;SDS011;38747;53.140;6.498;2022-08-11T15:20:44;4.30;;;1.60;;
52878;SDS011;38747;53.140;6.498;2022-08-11T15:23:29;2.13;;;1.58;;
52878;SDS011;38747;53.140;6.498;2022-08-11T15:26:15;3.40;;;1.70;;
52878;SDS011;38747;53.140;6.498;2022-08-11T15:28:45;5.38;;;1.70;;
52878;SDS011;38747;53.140;6.498;2022-08-11T15:31:31;1.77;;;1.20;;
52878;SDS011;38747;53.140;6.498;2022-08-11T15:34:17;2.40;;;1.50;;
52878;SDS011;38747;53.140;6.498;2022-08-11T15:37:08;4.07;;;1.77;;
52878;SDS011;38747;53.140;6.498;2022-08-11T15:43:23;9.50;;;1.88;;
52878;SDS011;38747;53.140;6.498;2022-08-11T15:46:47;3.85;;;1.45;;
52878;SDS011;38747;53.140;6.498;2022-08-11T15:49:11;2.60;;;1.40;;
52878;SDS011;38747;53.140;6.498;2022-08-11T15:51:47;3.30;;;1.58;;
52878;SDS011;38747;53.140;6.498;2022-08-11T15:54:22;2.33;;;1.30;;
52878;SDS011;38747;53.140;6.498;2022-08-11T15:56:51;2.17;;;1.45;;
52878;SDS011;38747;53.140;6.498;2022-08-11T15:59:19;1.50;;;1.30;;
52878;SDS011;38747;53.140;6.498;2022-08-11T16:02:04;4.07;;;1.65;;
52878;SDS011;38747;53.140;6.498;2022-08-11T16:04:51;3.60;;;1.60;;
52878;SDS011;38747;53.140;6.498;2022-08-11T16:07:22;2.13;;;1.55;;
52878;SDS011;38747;53.140;6.498;2022-08-11T16:09:54;3.80;;;1.30;;
52878;SDS011;38747;53.140;6.498;2022-08-11T16:15:34;2.95;;;1.52;;
52878;SDS011;38747;53.140;6.498;2022-08-11T16:18:23;5.88;;;1.75;;
52878;SDS011;38747;53.140;6.498;2022-08-11T16:21:04;4.63;;;1.88;;
52878;SDS011;38747;53.140;6.498;2022-08-11T16:23:36;3.17;;;1.60;;
52878;SDS011;38747;53.140;6.498;2022-08-11T16:26:07;4.20;;;1.80;;
52878;SDS011;38747;53.140;6.498;2022-08-11T16:28:33;3.60;;;1.70;;
52878;SDS011;38747;53.140;6.498;2022-08-11T16:31:02;4.38;;;1.92;;
52878;SDS011;38747;53.140;6.498;2022-08-11T16:33:34;3.63;;;1.50;;
52878;SDS011;38747;53.140;6.498;2022-08-11T16:36:02;4.70;;;1.80;;
52878;SDS011;38747;53.140;6.498;2022-08-11T16:38:46;2.75;;;1.85;;
52878;SDS011;38747;53.140;6.498;2022-08-11T16:41:15;7.45;;;1.73;;
52878;SDS011;38747;53.140;6.498;2022-08-11T16:44:06;8.48;;;1.60;;
52878;SDS011;38747;53.140;6.498;2022-08-11T16:46:52;3.00;;;1.90;;
52878;SDS011;38747;53.140;6.498;2022-08-11T16:52:02;3.72;;;1.55;;
52878;SDS011;38747;53.140;6.498;2022-08-11T16:54:32;4.10;;;2.00;;
52878;SDS011;38747;53.140;6.498;2022-08-11T16:56:59;3.53;;;1.73;;
52878;SDS011;38747;53.140;6.498;2022-08-11T16:59:48;4.38;;;1.80;;
52878;SDS011;38747;53.140;6.498;2022-08-11T17:02:17;4.75;;;1.70;;
52878;SDS011;38747;53.140;6.498;2022-08-11T17:05:07;4.55;;;1.90;;
52878;SDS011;38747;53.140;6.498;2022-08-11T17:07:55;4.07;;;1.60;;
52878;SDS011;38747;53.140;6.498;2022-08-11T17:10:55;5.10;;;1.63;;
52878;SDS011;38747;53.140;6.498;2022-08-11T17:13:54;5.30;;;1.80;;
52878;SDS011;38747;53.140;6.498;2022-08-11T17:16:33;7.63;;;2.00;;
52878;SDS011;38747;53.140;6.498;2022-08-11T17:19:04;5.20;;;1.92;;
52878;SDS011;38747;53.140;6.498;2022-08-11T17:21:38;4.40;;;1.63;;
52878;SDS011;38747;53.140;6.498;2022-08-11T17:24:26;3.88;;;1.83;;
52878;SDS011;38747;53.140;6.498;2022-08-11T17:26:54;4.07;;;1.83;;
52878;SDS011;38747;53.140;6.498;2022-08-11T17:29:31;5.30;;;1.85;;
52878;SDS011;38747;53.140;6.498;2022-08-11T17:31:58;3.70;;;1.95;;
52878;SDS011;38747;53.140;6.498;2022-08-11T17:34:45;6.65;;;1.90;;
52878;SDS011;38747;53.140;6.498;2022-08-11T17:37:31;3.85;;;1.60;;
52878;SDS011;38747;53.140;6.498;2022-08-11T17:39:59;4.72;;;1.95;;
52878;SDS011;38747;53.140;6.498;2022-08-11T17:42:27;2.40;;;1.77;;
52878;SDS011;38747;53.140;6.498;2022-08-11T17:45:13;3.90;;;1.90;;
52878;SDS011;38747;53.140;6.498;2022-08-11T17:48:00;6.32;;;1.90;;
52878;SDS011;38747;53.140;6.498;2022-08-11T17:50:46;3.92;;;1.75;;
52878;SDS011;38747;53.140;6.498;2022-08-11T17:53:13;5.30;;;2.10;;
52878;SDS011;38747;53.140;6.498;2022-08-11T17:56:00;8.13;;;2.53;;
52878;SDS011;38747;53.140;6.498;2022-08-11T18:01:30;5.03;;;1.70;;
52878;SDS011;38747;53.140;6.498;2022-08-11T18:03:59;2.90;;;1.77;;
52878;SDS011;38747;53.140;6.498;2022-08-11T18:06:28;3.53;;;1.83;;
52878;SDS011;38747;53.140;6.498;2022-08-11T18:08:56;2.03;;;1.63;;
52878;SDS011;38747;53.140;6.498;2022-08-11T18:11:42;3.17;;;1.50;;
52878;SDS011;38747;53.140;6.498;2022-08-11T18:14:31;2.58;;;1.60;;
52878;SDS011;38747;53.140;6.498;2022-08-11T18:17:18;5.72;;;1.85;;
52878;SDS011;38747;53.140;6.498;2022-08-11T18:20:03;4.10;;;1.70;;
52878;SDS011;38747;53.140;6.498;2022-08-11T18:22:49;5.85;;;1.80;;
52878;SDS011;38747;53.140;6.498;2022-08-11T18:25:40;3.40;;;1.77;;
52878;SDS011;38747;53.140;6.498;2022-08-11T18:28:28;5.13;;;1.98;;
52878;SDS011;38747;53.140;6.498;2022-08-11T18:31:20;4.47;;;2.15;;
52878;SDS011;38747;53.140;6.498;2022-08-11T18:34:06;4.65;;;1.75;;
52878;SDS011;38747;53.140;6.498;2022-08-11T18:37:06;2.72;;;1.60;;
52878;SDS011;38747;53.140;6.498;2022-08-11T18:39:59;4.25;;;1.48;;
52878;SDS011;38747;53.140;6.498;2022-08-11T18:42:46;4.25;;;1.50;;
52878;SDS011;38747;53.140;6.498;2022-08-11T18:45:33;3.13;;;1.45;;
52878;SDS011;38747;53.140;6.498;2022-08-11T18:48:22;2.55;;;1.60;;
52878;SDS011;38747;53.140;6.498;2022-08-11T18:51:08;3.97;;;1.88;;
52878;SDS011;38747;53.140;6.498;2022-08-11T18:53:55;6.75;;;1.70;;
52878;SDS011;38747;53.140;6.498;2022-08-11T18:56:43;7.05;;;2.25;;
52878;SDS011;38747;53.140;6.498;2022-08-11T18:59:28;3.83;;;1.90;;
52878;SDS011;38747;53.140;6.498;2022-08-11T19:02:17;5.40;;;1.80;;
52878;SDS011;38747;53.140;6.498;2022-08-11T19:05:05;2.83;;;1.70;;
52878;SDS011;38747;53.140;6.498;2022-08-11T19:07:54;2.65;;;1.48;;
52878;SDS011;38747;53.140;6.498;2022-08-11T19:10:42;3.17;;;1.67;;
52878;SDS011;38747;53.140;6.498;2022-08-11T19:13:27;3.40;;;1.50;;
52878;SDS011;38747;53.140;6.498;2022-08-11T19:16:14;5.13;;;1.42;;
52878;SDS011;38747;53.140;6.498;2022-08-11T19:18:59;4.10;;;1.40;;
52878;SDS011;38747;53.140;6.498;2022-08-11T19:21:45;4.25;;;1.42;;
52878;SDS011;38747;53.140;6.498;2022-08-11T19:24:29;3.80;;;1.80;;